Time;durP1;ratioP1;P1;durP2;ratioP2;P2;SDS_P1;SDS_P2;PMS_P1;PMS_P2;Temp;Humidity;BMP_temperature;BMP_pressure;BME280_temperature;BME280_humidity;BME280_pressure;Samples;Min_cycle;Max_cycle;Signal;HPM_P1;HPM_P2
2022/11/15 00:00:34;;;;;;;16.57;11.80;;;;;;;-143.84;90.61;45237.59;5109071;28;20442;-73
2022/11/15 00:03:01;;;;;;;20.30;10.10;;;;;;;-143.84;90.20;45237.59;5108532;28;20868;-71
2022/11/15 00:05:28;;;;;;;14.33;10.57;;;;;;;-143.84;90.21;45239.50;5105026;28;20457;-74
2022/11/15 00:07:57;;;;;;;13.70;9.90;;;;;;;-143.84;90.31;45239.50;5108145;28;20448;-74
2022/11/15 00:10:24;;;;;;;11.70;9.97;;;;;;;-143.84;90.53;45252.81;5107840;28;20453;-74
2022/11/15 00:12:51;;;;;;;15.50;10.80;;;;;;;-143.84;90.71;45250.91;5108013;28;20449;-74
2022/11/15 00:15:20;;;;;;;11.30;9.13;;;;;;;-143.84;90.54;45216.63;5108806;28;20485;-73
2022/11/15 00:17:50;;;;;;;16.10;9.57;;;;;;;-143.84;90.14;45266.16;5108340;28;20460;-74
2022/11/15 00:20:18;;;;;;;11.27;9.83;;;;;;;-143.84;90.42;45224.25;5111835;28;20573;-73
2022/11/15 00:22:45;;;;;;;15.83;9.90;;;;;;;-143.84;90.25;45237.59;5112465;28;21175;-72
2022/11/15 00:25:12;;;;;;;13.63;10.33;;;;;;;-143.84;90.25;45249.00;5110954;28;20465;-71
2022/11/15 00:27:39;;;;;;;13.83;9.80;;;;;;;-143.84;90.31;45258.53;5110581;28;20450;-72
2022/11/15 00:30:07;;;;;;;14.90;9.83;;;;;;;-143.84;90.29;45247.09;5112000;28;20477;-73
2022/11/15 00:32:36;;;;;;;14.70;10.07;;;;;;;-143.84;90.83;45214.72;5108512;28;20445;-74
2022/11/15 00:35:03;;;;;;;20.10;9.87;;;;;;;-143.84;90.94;45237.59;5111363;28;20973;-74
2022/11/15 00:37:30;;;;;;;12.43;9.27;;;;;;;-143.84;90.90;45239.50;5112747;27;20441;-73
2022/11/15 00:39:57;;;;;;;11.37;9.07;;;;;;;-143.84;90.79;45226.16;5111974;28;20456;-73
2022/11/15 00:42:24;;;;;;;11.80;9.23;;;;;;;-143.84;90.45;45241.41;5112325;28;20445;-73
2022/11/15 00:44:51;;;;;;;12.20;8.63;;;;;;;-143.84;90.91;45243.31;5111890;28;20489;-73
2022/11/15 00:47:19;;;;;;;13.17;8.00;;;;;;;-143.84;90.77;45228.06;5111453;28;21281;-73
2022/11/15 00:49:47;;;;;;;12.07;8.10;;;;;;;-143.84;90.90;45243.31;5110779;28;20978;-73
2022/11/15 00:52:14;;;;;;;16.70;7.70;;;;;;;-143.84;90.67;45228.06;5111914;28;20461;-73
2022/11/15 00:54:41;;;;;;;11.07;8.57;;;;;;;-143.84;91.00;45239.50;5107311;28;20890;-73
2022/11/15 00:57:09;;;;;;;12.17;8.57;;;;;;;-143.84;90.81;45233.78;5110597;28;20453;-73
2022/11/15 00:59:36;;;;;;;8.00;7.20;;;;;;;-143.84;90.86;45264.25;5110871;28;20479;-73
2022/11/15 01:02:03;;;;;;;9.73;7.90;;;;;;;-143.84;91.09;45237.59;5110594;28;20461;-73
2022/11/15 01:04:30;;;;;;;9.63;8.10;;;;;;;-143.84;90.89;45239.50;5110614;28;21000;-74
2022/11/15 01:06:59;;;;;;;10.33;7.50;;;;;;;-143.84;90.78;45249.00;5110154;28;20457;-71
2022/11/15 01:09:26;;;;;;;12.63;8.07;;;;;;;-143.84;91.15;45247.09;5110113;28;20853;-74
2022/11/15 01:12:02;;;;;;;9.20;7.27;;;;;;;-143.84;91.00;45235.69;5110242;28;21243;-74
2022/11/15 01:14:29;;;;;;;12.73;8.10;;;;;;;-143.84;91.51;45252.81;5109680;28;20441;-71
2022/11/15 01:16:56;;;;;;;8.23;6.37;;;;;;;-143.84;91.06;45258.53;5110347;28;20464;-74
2022/11/15 01:19:23;;;;;;;8.30;7.00;;;;;;;-143.84;91.00;45254.72;5110393;28;20452;-76
2022/11/15 01:21:51;;;;;;;8.77;7.17;;;;;;;-143.84;90.86;45245.19;5108800;28;20514;-77
2022/11/15 01:24:19;;;;;;;8.90;7.80;;;;;;;-143.84;91.16;45271.88;5109898;28;20481;-74
2022/11/15 01:26:46;;;;;;;9.60;7.27;;;;;;;-143.84;91.22;45250.91;5109812;28;20519;-74
2022/11/15 01:29:13;;;;;;;10.17;7.40;;;;;;;-143.84;90.92;45250.91;5108845;28;20511;-74
2022/11/15 01:31:40;;;;;;;8.43;7.00;;;;;;;-143.84;91.43;45258.53;5108079;28;20521;-74
2022/11/15 01:34:08;;;;;;;10.30;6.80;;;;;;;-143.84;91.41;45252.81;5110105;28;20453;-72
2022/11/15 01:36:35;;;;;;;8.43;7.30;;;;;;;-143.84;91.13;45250.91;5110007;28;20451;-73
2022/11/15 01:39:02;;;;;;;9.07;6.77;;;;;;;-143.84;91.41;45256.63;5108826;27;20444;-73
2022/11/15 01:41:33;;;;;;;8.80;7.27;;;;;;;-143.84;91.25;45229.97;5111522;28;20546;-72
2022/11/15 01:44:39;;;;;;;10.07;7.93;;;;;;;-143.84;91.49;45247.09;5111060;28;20914;-72
2022/11/15 01:47:11;;;;;;;8.37;6.97;;;;;;;-143.84;91.80;45252.81;5099255;28;20459;-71
2022/11/15 01:49:42;;;;;;;8.73;7.57;;;;;;;-143.84;91.94;45256.63;5110193;28;20448;-72
2022/11/15 01:52:13;;;;;;;8.40;6.73;;;;;;;-143.84;92.02;45256.63;5110182;28;20445;-72
2022/11/15 01:54:40;;;;;;;10.80;6.90;;;;;;;-143.84;91.70;45262.34;5110586;28;20460;-73
2022/11/15 01:57:11;;;;;;;11.77;8.73;;;;;;;-143.84;92.27;45231.88;5110444;28;20456;-74
2022/11/15 01:59:41;;;;;;;8.73;7.53;;;;;;;-143.84;92.06;45262.34;5110125;28;20446;-74
2022/11/15 02:02:09;;;;;;;14.00;7.90;;;;;;;-143.84;92.01;45262.34;5110154;28;20450;-73
2022/11/15 02:04:40;;;;;;;9.93;7.87;;;;;;;-143.84;92.26;45218.53;5110094;28;20482;-73
2022/11/15 02:07:10;;;;;;;10.90;7.63;;;;;;;-143.84;92.04;45205.22;5098857;28;20449;-73
2022/11/15 02:09:38;;;;;;;8.73;7.47;;;;;;;-143.84;92.22;45243.31;5096196;28;20952;-73
2022/11/15 02:12:07;;;;;;;8.80;7.80;;;;;;;-143.84;91.77;45228.06;5105546;28;20597;-72
2022/11/15 02:14:37;;;;;;;9.87;7.63;;;;;;;-143.84;91.99;45250.91;5106100;28;20521;-73
2022/11/15 02:17:20;;;;;;;9.80;7.50;;;;;;;-143.84;92.12;45241.41;5110377;28;20470;-73
2022/11/15 02:20:24;;;;;;;9.80;7.97;;;;;;;-143.84;92.19;45254.72;5105085;28;20449;-71
2022/11/15 02:23:12;;;;;;;8.90;6.87;;;;;;;-143.84;91.66;45231.88;5102406;28;20445;-71
2022/11/15 02:25:48;;;;;;;7.43;6.60;;;;;;;-143.84;91.45;45250.91;5103591;28;20483;-72
2022/11/15 02:28:44;;;;;;;9.40;7.43;;;;;;;-143.84;91.28;45237.59;5104502;28;20448;-71
2022/11/15 02:31:18;;;;;;;13.70;7.37;;;;;;;-143.84;91.71;45258.53;5106740;28;20448;-74
2022/11/15 02:33:56;;;;;;;9.27;7.50;;;;;;;-143.84;91.39;45237.59;5100298;28;20453;-74
2022/11/15 02:36:35;;;;;;;8.77;7.20;;;;;;;-143.84;91.79;45250.91;5105261;28;20452;-74
2022/11/15 02:39:11;;;;;;;7.10;6.40;;;;;;;-143.84;91.29;45243.31;5103210;28;20532;-75
2022/11/15 02:41:47;;;;;;;9.30;7.40;;;;;;;-143.84;91.25;45231.88;5100805;28;20452;-75
2022/11/15 02:44:18;;;;;;;7.17;5.93;;;;;;;-143.84;91.78;45229.97;5103503;28;20483;-74
2022/11/15 02:49:43;;;;;;;7.47;6.30;;;;;;;-143.84;91.66;45249.00;5097547;28;20477;-73
2022/11/15 02:52:10;;;;;;;7.23;6.50;;;;;;;-143.84;91.65;45256.63;5108719;28;20444;-73
2022/11/15 02:54:37;;;;;;;10.60;7.83;;;;;;;-143.84;91.47;45231.88;5108216;28;20448;-73
2022/11/15 02:57:08;;;;;;;9.13;7.00;;;;;;;-143.84;91.72;45229.97;5108197;28;20448;-73
2022/11/15 03:00:07;;;;;;;9.90;7.67;;;;;;;-143.84;92.14;45224.25;5101459;28;20455;-73
2022/11/15 03:03:12;;;;;;;8.30;7.40;;;;;;;-143.84;91.64;45226.16;5064701;28;20458;-73
2022/11/15 03:05:48;;;;;;;9.20;6.73;;;;;;;-143.84;91.41;45233.78;5092423;28;20493;-73
2022/11/15 03:08:23;;;;;;;9.20;7.70;;;;;;;-143.84;91.40;45229.97;5108658;28;20448;-73
2022/11/15 03:11:03;;;;;;;9.37;7.47;;;;;;;-143.84;91.37;45249.00;5108621;28;20512;-73
2022/11/15 03:13:37;;;;;;;9.07;7.50;;;;;;;-143.84;91.68;45258.53;5097481;28;20584;-73
2022/11/15 03:16:08;;;;;;;7.50;6.70;;;;;;;-143.84;91.52;45220.44;5090843;28;20489;-73
2022/11/15 03:18:39;;;;;;;9.27;8.37;;;;;;;-143.84;91.72;45243.31;5105159;28;20445;-73
2022/11/15 03:21:11;;;;;;;10.57;8.50;;;;;;;-143.84;91.43;45241.41;5100928;28;20453;-73
2022/11/15 03:23:40;;;;;;;6.90;6.20;;;;;;;-143.84;91.48;45228.06;5104846;28;20464;-73
2022/11/15 03:26:13;;;;;;;7.47;6.67;;;;;;;-143.84;91.46;45252.81;5096087;28;21031;-73
2022/11/15 03:28:44;;;;;;;8.30;7.10;;;;;;;-143.84;91.89;45220.44;5104077;28;20461;-73
2022/11/15 03:34:02;;;;;;;7.83;6.97;;;;;;;-143.84;91.86;45247.09;5107581;28;20570;-73
2022/11/15 03:36:34;;;;;;;11.30;7.10;;;;;;;-143.84;91.77;45252.81;5107871;28;20445;-73
2022/11/15 03:39:05;;;;;;;7.83;6.93;;;;;;;-143.84;92.13;45311.84;5108548;28;20452;-73
2022/11/15 03:41:40;;;;;;;12.90;7.33;;;;;;;-143.84;91.86;45247.09;5108039;28;20583;-73
2022/11/15 03:44:15;;;;;;;10.00;8.00;;;;;;;-143.84;91.98;45256.63;5107530;28;21019;-73
2022/11/15 03:46:48;;;;;;;10.43;7.93;;;;;;;-143.84;91.95;45256.63;5104929;28;20867;-73
2022/11/15 03:49:20;;;;;;;11.50;8.43;;;;;;;-143.84;92.10;45262.34;5097659;28;20537;-73
2022/11/15 03:51:49;;;;;;;10.20;8.10;;;;;;;-143.84;92.15;45241.41;5108155;28;20500;-73
2022/11/15 03:54:16;;;;;;;10.13;7.63;;;;;;;-143.84;92.09;45235.69;5101448;28;20457;-73
2022/11/15 03:56:43;;;;;;;8.90;7.73;;;;;;;-143.84;91.94;45249.00;5106191;28;20477;-73
2022/11/15 03:59:10;;;;;;;11.90;8.83;;;;;;;-143.84;91.75;45252.81;5106373;28;20510;-73
2022/11/15 04:01:38;;;;;;;10.50;8.53;;;;;;;-143.84;92.15;45254.72;5107396;28;21130;-73
2022/11/15 04:04:05;;;;;;;9.30;7.80;;;;;;;-143.84;92.14;45237.59;5110159;28;20451;-73
2022/11/15 04:06:32;;;;;;;10.37;7.60;;;;;;;-143.84;92.01;45247.09;5111505;28;20443;-73
2022/11/15 04:09:01;;;;;;;11.20;8.93;;;;;;;-143.84;92.48;45235.69;5111673;28;20989;-73
2022/11/15 04:11:28;;;;;;;9.83;8.83;;;;;;;-143.84;92.51;45229.97;5111743;28;20460;-73
2022/11/15 04:13:55;;;;;;;9.50;8.27;;;;;;;-143.84;92.36;45229.97;5111368;28;20495;-73
2022/11/15 04:16:22;;;;;;;9.67;8.40;;;;;;;-143.84;92.40;45228.06;5103438;28;20877;-73
2022/11/15 04:24:11;;;;;;;10.17;8.10;;;;;;;-143.84;92.55;45233.78;5102829;28;20513;-73
2022/11/15 04:24:22;;;;;;;12.47;8.70;;;;;;;-143.84;92.71;45237.59;5099938;28;20424;-73
2022/11/15 04:26:49;;;;;;;10.13;7.77;;;;;;;-143.84;93.02;45239.50;5097957;28;20513;-73
2022/11/15 04:32:01;;;;;;;9.67;7.93;;;;;;;-143.84;92.99;45241.41;5100196;28;20954;-73
2022/11/15 04:34:28;;;;;;;13.63;8.33;;;;;;;-143.84;92.66;45243.31;5097538;28;20442;-73
2022/11/15 04:37:13;;;;;;;13.47;8.50;;;;;;;-143.84;92.53;45258.53;5098124;28;20507;-73
2022/11/15 04:39:43;;;;;;;11.33;8.57;;;;;;;-143.84;92.89;45231.88;5101094;28;20456;-73
2022/11/15 04:42:10;;;;;;;9.17;7.77;;;;;;;-143.84;92.53;45262.34;5097556;28;20476;-73
2022/11/15 04:44:40;;;;;;;17.40;7.67;;;;;;;-143.84;93.05;45233.78;5108429;28;20483;-73
2022/11/15 04:47:08;;;;;;;9.97;8.23;;;;;;;-143.84;92.68;45252.81;5105712;28;20449;-73
2022/11/15 04:49:36;;;;;;;12.07;8.87;;;;;;;-143.84;92.64;45250.91;5088999;28;20448;-75
2022/11/15 04:52:03;;;;;;;12.87;8.80;;;;;;;-143.84;92.30;45243.31;5103146;28;20534;-76
2022/11/15 04:54:30;;;;;;;10.00;8.07;;;;;;;-143.84;92.44;45250.91;5110402;28;20467;-76
2022/11/15 04:56:59;;;;;;;9.90;7.47;;;;;;;-143.84;92.00;45237.59;5090835;28;20458;-76
2022/11/15 04:59:26;;;;;;;10.80;8.17;;;;;;;-143.84;92.00;45260.44;5100582;28;20460;-77
2022/11/15 05:01:53;;;;;;;8.43;7.37;;;;;;;-143.84;92.03;45247.09;5099717;28;20511;-76
2022/11/15 05:04:19;;;;;;;12.40;8.90;;;;;;;-143.84;92.31;45249.00;5098929;28;20450;-76
2022/11/15 05:06:47;;;;;;;9.83;7.13;;;;;;;-143.84;91.97;45252.81;5107365;28;20467;-75
2022/11/15 05:09:15;;;;;;;11.50;7.80;;;;;;;-143.84;92.40;45226.16;5111934;28;21063;-76
2022/11/15 05:11:42;;;;;;;18.07;8.33;;;;;;;-143.84;92.13;45252.81;5111847;28;20502;-76
2022/11/15 05:14:11;;;;;;;14.40;9.53;;;;;;;-143.84;92.23;45237.59;5111142;28;20445;-76
2022/11/15 05:16:38;;;;;;;9.83;8.00;;;;;;;-143.84;92.04;45235.69;5111325;28;21036;-77
2022/11/15 05:19:06;;;;;;;13.27;9.20;;;;;;;-143.84;91.78;45235.69;5111476;28;20441;-77
2022/11/15 05:21:34;;;;;;;17.60;8.63;;;;;;;-143.84;92.07;45214.72;5111642;28;20432;-77
2022/11/15 05:24:02;;;;;;;12.80;8.60;;;;;;;-143.84;92.23;45243.31;5111895;28;20923;-76
2022/11/15 05:26:29;;;;;;;14.87;9.70;;;;;;;-143.84;92.11;45209.03;5111459;28;20535;-76
2022/11/15 05:28:58;;;;;;;13.63;9.43;;;;;;;-143.84;92.18;45228.06;5110524;28;20498;-75
2022/11/15 05:31:27;;;;;;;14.43;9.40;;;;;;;-143.84;92.22;45247.09;5113605;27;20471;-78
2022/11/15 05:33:56;;;;;;;11.60;8.17;;;;;;;-143.84;91.79;45224.25;5111218;28;20506;-76
2022/11/15 05:36:30;;;;;;;11.33;9.20;;;;;;;-143.84;91.66;45218.53;5111089;28;20798;-76
2022/11/15 05:38:57;;;;;;;15.83;8.63;;;;;;;-143.84;91.72;45256.63;5111182;28;20443;-77
2022/11/15 05:41:30;;;;;;;20.73;8.30;;;;;;;-143.84;91.47;45235.69;5110590;28;20817;-76
2022/11/15 05:43:58;;;;;;;11.60;8.87;;;;;;;-143.84;91.52;45228.06;5109630;28;20436;-76
2022/11/15 05:46:27;;;;;;;12.57;8.50;;;;;;;-143.84;92.00;45275.66;5092620;28;20485;-77
2022/11/15 05:49:03;;;;;;;9.83;7.60;;;;;;;-143.84;91.75;45226.16;5100679;28;20455;-76
2022/11/15 05:51:37;;;;;;;12.73;8.83;;;;;;;-143.84;92.03;45250.91;5110225;28;20445;-76
2022/11/15 05:54:04;;;;;;;10.37;7.90;;;;;;;-143.84;92.03;45260.44;5110045;28;20951;-76
2022/11/15 05:56:32;;;;;;;11.90;7.90;;;;;;;-143.84;91.99;45239.50;5110610;28;20445;-76
2022/11/15 05:59:00;;;;;;;15.63;8.30;;;;;;;-143.84;91.70;45254.72;5110806;28;20446;-76
2022/11/15 06:01:29;;;;;;;11.33;8.77;;;;;;;-143.84;91.54;45256.63;5110437;28;20441;-76
2022/11/15 06:03:56;;;;;;;10.70;7.90;;;;;;;-143.84;91.34;45237.59;5110241;28;20450;-76
2022/11/15 06:06:23;;;;;;;12.80;9.40;;;;;;;-143.84;91.50;45235.69;5109920;28;20542;-76
2022/11/15 06:08:50;;;;;;;13.37;9.40;;;;;;;-143.84;91.19;45245.19;5108202;28;20971;-76
2022/11/15 06:11:17;;;;;;;15.30;9.27;;;;;;;-143.84;91.29;45260.44;5108764;28;20432;-76
2022/11/15 06:13:44;;;;;;;12.27;8.63;;;;;;;-143.84;91.37;45241.41;5109113;28;20445;-76
2022/11/15 06:16:11;;;;;;;13.73;9.20;;;;;;;-143.84;91.33;45256.63;5108093;28;20485;-76
2022/11/15 06:18:40;;;;;;;14.30;9.50;;;;;;;-143.84;91.35;45252.81;5108856;28;20892;-76
2022/11/15 06:21:07;;;;;;;11.80;7.83;;;;;;;-143.84;91.23;45239.50;5109102;28;20441;-76
2022/11/15 06:23:35;;;;;;;12.17;9.13;;;;;;;-143.84;91.38;45250.91;5109700;28;20527;-76
2022/11/15 06:26:04;;;;;;;14.33;9.23;;;;;;;-143.84;91.43;45235.69;5109996;28;20483;-76
2022/11/15 06:28:32;;;;;;;14.90;8.57;;;;;;;-143.84;91.13;45241.41;5109717;28;20495;-76
2022/11/15 06:31:04;;;;;;;13.97;8.90;;;;;;;-143.84;91.04;45250.91;5110253;28;20443;-76
2022/11/15 06:33:31;;;;;;;12.60;8.50;;;;;;;-143.84;91.00;45250.91;5109863;28;20438;-76
2022/11/15 06:36:04;;;;;;;13.27;9.60;;;;;;;-143.84;91.31;45249.00;5109881;28;20872;-76
2022/11/15 06:38:31;;;;;;;11.00;7.87;;;;;;;-143.84;91.21;45224.25;5109709;28;21309;-76
2022/11/15 06:41:03;;;;;;;13.03;9.47;;;;;;;-143.84;91.28;45235.69;5109997;28;20458;-76
2022/11/15 06:43:30;;;;;;;12.90;8.67;;;;;;;-143.84;91.09;45254.72;5109515;28;21004;-76
2022/11/15 06:45:59;;;;;;;14.63;8.27;;;;;;;-143.84;90.92;45247.09;5109603;28;20534;-74
2022/11/15 06:48:26;;;;;;;11.90;8.13;;;;;;;-143.84;90.81;45233.78;5109843;28;20557;-74
2022/11/15 06:50:53;;;;;;;12.73;7.83;;;;;;;-143.84;90.68;45229.97;5110275;28;20441;-74
2022/11/15 06:53:23;;;;;;;12.20;9.50;;;;;;;-143.84;90.16;45216.63;5109846;28;20441;-74
2022/11/15 06:55:50;;;;;;;11.43;7.83;;;;;;;-143.84;90.01;45250.91;5109471;28;20447;-74
2022/11/15 06:58:18;;;;;;;12.37;8.17;;;;;;;-143.84;89.98;45235.69;5109404;28;20522;-74
2022/11/15 07:00:45;;;;;;;10.50;7.57;;;;;;;-143.84;89.81;45224.25;5109589;28;20442;-74
2022/11/15 07:03:12;;;;;;;9.63;7.60;;;;;;;-143.84;89.41;45245.19;5109598;28;20875;-74
2022/11/15 07:05:39;;;;;;;11.03;9.00;;;;;;;-143.84;89.55;45249.00;5108754;28;20482;-74
2022/11/15 07:08:06;;;;;;;12.53;8.30;;;;;;;-143.84;89.54;45243.31;5108608;28;20498;-74
2022/11/15 07:10:35;;;;;;;12.73;8.53;;;;;;;-143.84;89.34;45245.19;5108608;28;20495;-73
2022/11/15 07:13:02;;;;;;;12.77;8.37;;;;;;;-143.84;89.27;45220.44;5109169;28;20449;-74
2022/11/15 07:15:29;;;;;;;9.30;7.77;;;;;;;-143.84;88.68;45212.84;5109021;28;20559;-74
2022/11/15 07:17:56;;;;;;;11.90;7.87;;;;;;;-143.84;88.82;45218.53;5109301;28;20472;-74
2022/11/15 07:20:23;;;;;;;12.40;8.27;;;;;;;-143.84;88.44;45273.78;5109347;28;20439;-74
2022/11/15 07:22:50;;;;;;;11.57;8.10;;;;;;;-143.84;88.40;45218.53;5109091;28;20435;-74
2022/11/15 07:25:18;;;;;;;12.93;9.37;;;;;;;-143.84;88.46;45235.69;5108491;28;20992;-74
2022/11/15 07:27:55;;;;;;;15.47;9.60;;;;;;;-143.84;88.42;45241.41;5108704;28;20442;-74
2022/11/15 07:30:22;;;;;;;18.30;10.77;;;;;;;-143.84;88.20;45220.44;5113304;28;21000;-74
2022/11/15 07:32:54;;;;;;;14.53;10.17;;;;;;;-143.84;87.56;45214.72;5113599;28;20503;-74
2022/11/15 07:35:21;;;;;;;14.30;9.47;;;;;;;-143.84;87.50;45207.13;5113739;28;20446;-74
2022/11/15 07:37:55;;;;;;;14.60;10.20;;;;;;;-143.84;87.18;45243.31;5113558;28;20510;-74
2022/11/15 07:40:22;;;;;;;22.50;12.43;;;;;;;-143.84;87.25;45249.00;5113284;28;20438;-74
2022/11/15 07:42:54;;;;;;;14.57;9.57;;;;;;;-143.84;87.45;45224.25;5113343;28;20443;-74
2022/11/15 07:45:21;;;;;;;8.80;7.13;;;;;;;-143.84;87.36;45218.53;5113126;28;20435;-74
2022/11/15 07:47:48;;;;;;;7.83;6.90;;;;;;;-143.84;87.49;45245.19;5112953;28;20445;-74
2022/11/15 07:50:16;;;;;;;8.50;6.87;;;;;;;-143.84;87.19;45228.06;5113009;28;20442;-74
2022/11/15 07:52:43;;;;;;;7.73;6.53;;;;;;;-143.84;87.23;45212.84;5113150;28;20503;-74
2022/11/15 07:55:11;;;;;;;9.63;7.37;;;;;;;-143.84;87.16;45210.94;5112935;28;20944;-74
2022/11/15 07:57:38;;;;;;;8.07;6.50;;;;;;;-143.84;87.05;45226.16;5112860;28;20484;-74
2022/11/15 08:00:08;;;;;;;7.87;6.43;;;;;;;-143.84;87.25;45231.88;5112796;28;20445;-74
2022/11/15 08:02:35;;;;;;;8.77;5.80;;;;;;;-143.84;87.16;45216.63;5112745;28;20450;-73
2022/11/15 08:05:02;;;;;;;8.83;7.03;;;;;;;-143.84;87.25;45245.19;5112506;28;20824;-74
2022/11/15 08:07:31;;;;;;;7.13;6.17;;;;;;;-143.84;86.94;45231.88;5111966;28;20535;-74
2022/11/15 08:09:58;;;;;;;8.33;6.73;;;;;;;-143.84;86.74;45229.97;5111880;28;20434;-74
2022/11/15 08:12:25;;;;;;;9.63;6.53;;;;;;;-143.84;86.39;45241.41;5112456;28;20958;-74
2022/11/15 08:14:52;;;;;;;10.03;6.73;;;;;;;-143.84;86.51;45262.34;5112389;28;20531;-74
2022/11/15 08:17:21;;;;;;;7.43;6.73;;;;;;;-143.84;86.42;45212.84;5112557;28;20503;-74
2022/11/15 08:19:48;;;;;;;6.77;5.80;;;;;;;-143.84;86.48;45239.50;5112691;28;20443;-74
2022/11/15 08:22:15;;;;;;;7.50;5.93;;;;;;;-143.84;86.64;45214.72;5112703;28;20824;-74
2022/11/15 08:24:42;;;;;;;6.23;5.63;;;;;;;-143.84;86.91;45254.72;5112712;28;20435;-74
2022/11/15 08:27:14;;;;;;;12.23;7.63;;;;;;;-143.84;86.76;45258.53;5112537;28;20928;-74
2022/11/15 08:29:42;;;;;;;7.37;5.73;;;;;;;-143.84;86.69;45250.91;5112539;28;20443;-74
2022/11/15 08:32:09;;;;;;;7.00;5.70;;;;;;;-143.84;86.58;45235.69;5112228;28;20530;-74
2022/11/15 08:34:39;;;;;;;6.47;5.87;;;;;;;-143.84;86.50;45222.34;5112285;28;20478;-74
2022/11/15 08:37:06;;;;;;;5.60;5.03;;;;;;;-143.84;86.39;45231.88;5112225;28;20504;-71
2022/11/15 08:39:33;;;;;;;9.43;6.10;;;;;;;-143.84;86.56;45224.25;5112452;28;20439;-71
2022/11/15 12:05:50;;;;;;;9.60;8.47;;;;;;;-143.84;75.73;45199.50;5102669;28;21004;-71
2022/11/15 12:08:33;;;;;;;12.37;7.10;;;;;;;-143.84;75.94;45212.84;5088728;28;20448;-71
2022/11/15 12:11:08;;;;;;;23.27;11.07;;;;;;;-143.84;76.07;45216.63;5088713;28;20999;-71
2022/11/15 12:13:36;;;;;;;27.40;15.80;;;;;;;-143.84;75.92;45203.31;5088701;28;21329;-72
2022/11/15 12:16:10;;;;;;;14.43;10.00;;;;;;;-143.84;76.41;45178.56;5092030;28;20572;-71
2022/11/15 12:18:38;;;;;;;17.33;10.17;;;;;;;-143.84;76.82;45195.69;5092608;28;20435;-72
2022/11/15 12:21:15;;;;;;;12.40;8.80;;;;;;;-143.84;77.17;45186.16;5092561;28;20432;-72
2022/11/15 12:23:47;;;;;;;12.50;8.07;;;;;;;-143.84;77.30;45207.13;5092175;28;20431;-71
2022/11/15 12:26:20;;;;;;;24.53;8.23;;;;;;;-143.84;77.63;45216.63;5092365;28;20475;-71
2022/11/15 12:28:52;;;;;;;10.97;7.87;;;;;;;-143.84;77.41;45214.72;5092220;28;20508;-71
2022/11/15 12:31:25;;;;;;;11.13;8.17;;;;;;;-143.84;76.83;45167.13;5091899;28;20446;-71
2022/11/15 12:33:56;;;;;;;13.40;9.00;;;;;;;-143.84;76.58;45180.47;5092048;28;20451;-71
2022/11/15 12:36:39;;;;;;;9.40;7.50;;;;;;;-143.84;76.51;45243.31;5092053;28;20440;-71
2022/11/15 12:39:08;;;;;;;10.00;7.20;;;;;;;-143.84;76.18;45205.22;5091976;28;20455;-72
2022/11/15 12:41:37;;;;;;;16.23;9.77;;;;;;;-143.84;74.58;45191.88;5092117;28;20447;-72
2022/11/15 12:44:06;;;;;;;11.13;6.70;;;;;;;-143.84;74.04;45209.03;5091840;28;20439;-74
2022/11/15 12:47:03;;;;;;;6.90;6.20;;;;;;;-143.84;73.99;45199.50;5092944;28;20486;-74
2022/11/15 12:49:48;;;;;;;8.13;6.73;;;;;;;-143.84;73.81;45193.78;5091841;28;20985;-71
2022/11/15 12:52:17;;;;;;;9.63;7.43;;;;;;;-143.84;73.66;45197.59;5091145;28;20538;-71
2022/11/15 12:54:59;;;;;;;9.67;6.00;;;;;;;-143.84;73.32;45186.16;5091390;28;21226;-71
2022/11/15 12:57:32;;;;;;;20.67;12.10;;;;;;;-143.84;72.38;45169.03;5091029;28;20536;-71
2022/11/15 13:00:03;;;;;;;11.50;7.30;;;;;;;-143.84;72.30;45155.69;5091603;28;20780;-74
2022/11/15 13:02:33;;;;;;;10.70;5.60;;;;;;;-143.84;72.29;45197.59;5091193;28;20436;-75
2022/11/15 13:05:41;;;;;;;14.37;6.80;;;;;;;-143.84;72.20;45174.75;5091305;28;20539;-75
2022/11/15 13:08:10;;;;;;;12.20;6.73;;;;;;;-143.84;72.82;45199.50;5111431;28;20521;-74
2022/11/15 13:10:37;;;;;;;6.40;5.80;;;;;;;-143.84;73.52;45237.59;5111506;28;20454;-74
2022/11/15 13:13:05;;;;;;;23.30;5.57;;;;;;;-143.84;72.82;45193.78;5111724;28;21127;-74
2022/11/15 13:15:57;;;;;;;10.10;4.90;;;;;;;-143.84;72.79;45205.22;5111723;28;21273;-74
2022/11/15 13:18:39;;;;;;;6.83;5.27;;;;;;;-143.84;73.32;45193.78;5111342;28;20448;-74
2022/11/15 13:24:13;;;;;;;6.30;4.40;;;;;;;-143.84;74.08;45209.03;5111615;28;20454;-74
2022/11/15 13:26:41;;;;;;;10.27;5.77;;;;;;;-143.84;73.58;45178.56;5110222;28;20478;-74
2022/11/15 13:29:17;;;;;;;12.63;7.77;;;;;;;-143.84;73.93;45191.88;5111137;28;20443;-74
2022/11/15 13:31:46;;;;;;;8.67;5.80;;;;;;;-143.84;73.62;45170.94;5110652;28;20881;-75
2022/11/15 13:34:27;;;;;;;8.03;6.30;;;;;;;-143.84;73.84;45193.78;5110842;28;20938;-74
2022/11/15 13:36:55;;;;;;;6.33;4.73;;;;;;;-143.84;74.58;45222.34;5111114;28;20976;-74
2022/11/15 13:39:30;;;;;;;12.30;5.17;;;;;;;-143.84;74.44;45189.97;5110941;28;20504;-74
2022/11/15 13:41:57;;;;;;;9.03;6.80;;;;;;;-143.84;74.01;45174.75;5111171;28;20499;-75
2022/11/15 13:44:26;;;;;;;16.73;8.90;;;;;;;-143.84;74.44;45193.78;5111553;28;20797;-71
2022/11/15 13:47:03;;;;;;;11.10;6.80;;;;;;;-143.84;74.55;45188.06;5110880;28;20493;-74
2022/11/15 13:49:32;;;;;;;9.80;5.07;;;;;;;-143.84;74.22;45195.69;5103646;28;20422;-75
2022/11/15 13:52:02;;;;;;;12.03;7.83;;;;;;;-143.84;74.18;45193.78;5109846;28;20505;-75
2022/11/15 13:54:33;;;;;;;6.70;6.00;;;;;;;-143.84;74.65;45207.13;5110902;28;21014;-75
2022/11/15 13:57:04;;;;;;;6.90;5.20;;;;;;;-143.84;75.27;45228.06;5110739;28;20453;-76
2022/11/15 13:59:36;;;;;;;8.90;5.70;;;;;;;-143.84;75.13;45201.41;5111042;28;20435;-75
2022/11/15 14:02:15;;;;;;;5.43;4.93;;;;;;;-143.84;74.78;45195.69;5111248;28;20423;-75
2022/11/15 14:04:49;;;;;;;6.20;5.60;;;;;;;-143.84;74.99;45191.88;5111089;28;20434;-75
2022/11/15 14:07:20;;;;;;;7.30;4.90;;;;;;;-143.84;75.20;45201.41;5111173;28;20479;-75
2022/11/15 14:09:49;;;;;;;12.93;4.73;;;;;;;-143.84;75.67;45224.25;5111362;28;21308;-76
2022/11/15 14:12:26;;;;;;;5.53;5.03;;;;;;;-143.84;75.47;45184.25;5109838;28;20458;-74
2022/11/15 14:14:54;;;;;;;10.37;5.57;;;;;;;-143.84;75.32;45199.50;5109781;28;20947;-74
2022/11/15 14:17:33;;;;;;;9.40;6.43;;;;;;;-143.84;75.53;45205.22;5110555;28;20488;-73
2022/11/15 14:20:01;;;;;;;10.70;5.07;;;;;;;-143.84;75.64;45199.50;5111770;28;20460;-76
2022/11/15 14:22:29;;;;;;;11.47;6.03;;;;;;;-143.84;75.46;45184.25;5111291;28;20435;-75
2022/11/15 14:25:21;;;;;;;5.83;4.70;;;;;;;-143.84;75.50;45191.88;5111371;28;20443;-74
2022/11/15 14:28:11;;;;;;;6.67;4.97;;;;;;;-143.84;75.47;45193.78;5111635;28;20477;-74
2022/11/15 14:30:39;;;;;;;7.07;5.13;;;;;;;-143.84;75.58;45252.81;5112121;28;20856;-74
2022/11/15 14:33:20;;;;;;;8.37;5.60;;;;;;;-143.84;75.59;45224.25;5110504;28;20526;-72
2022/11/15 14:35:47;;;;;;;14.50;6.00;;;;;;;-143.84;75.58;45193.78;5110784;28;20435;-72
2022/11/15 14:38:15;;;;;;;8.40;5.90;;;;;;;-143.84;75.46;45199.50;5109972;28;20434;-72
2022/11/15 14:40:44;;;;;;;8.57;5.97;;;;;;;-143.84;75.54;45197.59;5110172;28;21008;-72
2022/11/15 14:43:12;;;;;;;8.93;6.40;;;;;;;-143.84;75.87;45220.44;5110065;28;20442;-72
2022/11/15 14:45:40;;;;;;;6.30;5.70;;;;;;;-143.84;75.84;45210.94;5110192;28;20439;-72
2022/11/15 14:48:07;;;;;;;9.73;6.27;;;;;;;-143.84;75.76;45197.59;5110060;28;20991;-72
2022/11/15 14:50:36;;;;;;;8.47;6.00;;;;;;;-143.84;76.22;45186.16;5110005;28;20957;-72
2022/11/15 14:53:03;;;;;;;6.93;5.60;;;;;;;-143.84;76.84;45220.44;5110484;28;20446;-73
2022/11/15 14:55:34;;;;;;;11.03;6.53;;;;;;;-143.84;76.92;45220.44;5109968;28;20811;-72
2022/11/15 14:58:05;;;;;;;10.87;6.60;;;;;;;-143.84;76.88;45165.22;5110055;28;20451;-72
2022/11/15 15:00:33;;;;;;;19.90;5.80;;;;;;;-143.84;77.12;45186.16;5110587;28;21266;-72
2022/11/15 15:03:00;;;;;;;10.67;7.33;;;;;;;-143.84;77.19;45218.53;5110355;28;21157;-72
2022/11/15 15:05:37;;;;;;;7.63;6.40;;;;;;;-143.84;77.56;45210.94;5110171;28;20443;-72